Time,TemperatureF,DewpointF,PressureIn,WindDirection,WindDirectionDegrees,WindSpeedMPH,WindSpeedGustMPH,Humidity,HourlyPrecipIn,Conditions,Clouds,dailyrainin,SoftwareType,DateUTC
2013-08-02 00:01:00,83.3,87.8,30.00,ESE,112,6.5,7.6,69,0.00,,,0.00,,2013-08-02 04:01:00,
2013-08-02 00:02:00,83.3,87.8,30.00,SE,135,4.0,5.6,69,0.00,,,0.00,,2013-08-02 04:02:00,
2013-08-02 00:07:00,83.3,87.7,29.99,ESE,112,3.6,3.6,68,0.00,,,0.00,,2013-08-02 04:07:00,
2013-08-02 00:12:00,83.3,87.7,29.99,SE,135,3.1,5.6,68,0.00,,,0.00,,2013-08-02 04:12:00,
2013-08-02 00:15:00,83.3,87.7,29.99,ESE,112,3.1,4.7,68,0.00,,,0.00,,2013-08-02 04:15:00,
2013-08-02 00:17:00,83.3,87.8,29.99,East,90,3.8,7.6,68,0.00,,,0.00,,2013-08-02 04:17:00,
2013-08-02 00:22:00,83.3,87.8,29.99,ESE,112,3.1,3.4,68,0.00,,,0.00,,2013-08-02 04:22:00,
2013-08-02 00:27:00,83.3,87.7,29.99,ESE,112,2.5,7.6,67,0.00,,,0.00,,2013-08-02 04:27:00,
2013-08-02 00:32:00,83.2,87.7,29.98,East,90,1.8,2.9,67,0.00,,,0.00,,2013-08-02 04:32:00,
2013-08-02 00:37:00,83.3,87.6,29.98,ESE,112,8.7,8.7,66,0.00,,,0.00,,2013-08-02 04:37:00,
2013-08-02 00:42:00,83.2,87.6,29.98,East,90,3.1,3.4,67,0.00,,,0.00,,2013-08-02 04:42:00,
2013-08-02 00:47:00,83.3,87.6,29.98,ESE,112,1.1,3.4,67,0.00,,,0.00,,2013-08-02 04:47:00,
2013-08-02 00:52:00,83.4,87.6,29.98,ESE,112,2.7,3.6,67,0.00,,,0.00,,2013-08-02 04:52:00,
2013-08-02 00:57:00,83.3,87.6,29.97,ESE,112,0.0,1.3,67,0.00,,,0.00,,2013-08-02 04:57:00,
2013-08-02 01:02:00,83.3,87.6,29.97,ESE,112,0.0,0.0,67,0.00,,,0.00,,2013-08-02 05:02:00,
2013-08-02 01:07:00,83.4,87.6,29.97,East,90,0.0,2.2,67,0.00,,,0.00,,2013-08-02 05:07:00,
2013-08-02 01:12:00,83.4,87.6,29.97,ESE,112,6.0,6.3,67,0.00,,,0.00,,2013-08-02 05:12:00,
2013-08-02 01:17:00,83.4,87.5,29.97,East,90,4.3,9.6,67,0.00,,,0.00,,2013-08-02 05:17:00,
2013-08-02 01:22:00,83.3,87.5,29.97,ESE,112,4.0,6.7,67,0.00,,,0.00,,2013-08-02 05:22:00,
2013-08-02 01:27:00,83.3,87.5,29.96,ESE,112,3.8,7.2,67,0.00,,,0.00,,2013-08-02 05:27:00,
2013-08-02 01:32:00,83.3,87.5,29.96,ESE,112,2.0,2.0,67,0.00,,,0.00,,2013-08-02 05:32:00,
2013-08-02 01:37:00,83.3,87.4,29.96,East,90,2.7,4.5,67,0.00,,,0.00,,2013-08-02 05:37:00,
2013-08-02 01:42:00,83.3,87.5,29.96,ESE,112,3.4,3.4,67,0.00,,,0.00,,2013-08-02 05:42:00,
2013-08-02 01:47:00,83.3,87.5,29.96,ESE,112,0.4,3.4,67,0.00,,,0.00,,2013-08-02 05:47:00,
2013-08-02 01:52:00,83.3,87.4,29.96,ESE,112,4.5,6.5,67,0.00,,,0.00,,2013-08-02 05:52:00,
2013-08-02 01:57:00,83.2,87.4,29.96,ESE,112,0.0,3.6,68,0.00,,,0.00,,2013-08-02 05:57:00,
2013-08-02 02:02:00,83.3,87.4,29.96,SE,135,3.1,3.6,68,0.00,,,0.00,,2013-08-02 06:02:00,
2013-08-02 02:07:00,83.3,87.4,29.95,ESE,112,2.9,7.8,67,0.00,,,0.00,,2013-08-02 06:07:00,
2013-08-02 02:12:00,83.2,87.5,29.95,ESE,112,4.7,4.7,68,0.00,,,0.00,,2013-08-02 06:12:00,
2013-08-02 02:17:00,83.1,87.4,29.95,SE,135,3.6,5.6,68,0.00,,,0.00,,2013-08-02 06:17:00,
2013-08-02 02:22:00,83.1,87.4,29.95,SE,135,0.7,4.5,67,0.00,,,0.00,,2013-08-02 06:22:00,
2013-08-02 02:27:00,83.1,87.4,29.95,SE,135,4.3,5.1,67,0.00,,,0.00,,2013-08-02 06:27:00,
2013-08-02 02:32:00,83.1,87.3,29.95,SE,135,2.2,3.8,67,0.00,,,0.00,,2013-08-02 06:32:00,
2013-08-02 02:37:00,83.1,87.3,29.94,SE,135,0.0,1.6,67,0.00,,,0.00,,2013-08-02 06:37:00,
2013-08-02 02:42:00,83.1,87.2,29.94,ESE,112,0.0,2.2,67,0.00,,,0.00,,2013-08-02 06:42:00,
2013-08-02 02:47:00,83.2,87.2,29.94,ESE,112,1.1,3.4,67,0.00,,,0.00,,2013-08-02 06:47:00,
2013-08-02 02:52:00,83.2,87.2,29.94,ESE,112,3.4,4.7,67,0.00,,,0.00,,2013-08-02 06:52:00,
2013-08-02 02:57:00,83.2,87.2,29.94,ESE,112,1.1,2.7,67,0.00,,,0.00,,2013-08-02 06:57:00,
2013-08-02 03:02:00,83.2,87.2,29.94,ESE,112,0.4,3.6,67,0.00,,,0.00,,2013-08-02 07:02:00,
2013-08-02 03:07:00,83.1,87.2,29.94,ESE,112,1.8,4.0,67,0.00,,,0.00,,2013-08-02 07:07:00,
2013-08-02 03:12:00,83.1,87.2,29.94,SE,135,0.0,0.0,67,0.00,,,0.00,,2013-08-02 07:12:00,
2013-08-02 03:17:00,83.1,87.2,29.94,SE,135,0.0,0.7,67,0.00,,,0.00,,2013-08-02 07:17:00,
2013-08-02 03:22:00,83.1,87.2,29.94,SE,135,0.0,0.0,67,0.00,,,0.00,,2013-08-02 07:22:00,
2013-08-02 03:27:00,83.1,87.2,29.94,SE,135,0.0,0.0,67,0.00,,,0.00,,2013-08-02 07:27:00,
2013-08-02 03:32:00,83.1,87.1,29.94,SSE,157,0.0,0.0,67,0.00,,,0.00,,2013-08-02 07:32:00,
2013-08-02 03:37:00,83.1,87.1,29.93,SSE,157,0.0,0.0,67,0.00,,,0.00,,2013-08-02 07:37:00,
2013-08-02 03:42:00,83.1,87.1,29.94,SSE,157,0.0,0.0,67,0.00,,,0.00,,2013-08-02 07:42:00,
2013-08-02 03:47:00,83.1,87.1,29.94,WNW,292,0.0,0.0,68,0.00,,,0.00,,2013-08-02 07:47:00,
2013-08-02 03:52:00,83.1,87.2,29.93,WNW,292,0.0,0.0,67,0.00,,,0.00,,2013-08-02 07:52:00,
2013-08-02 03:57:00,83.0,87.1,29.94,WNW,292,1.3,1.3,68,0.00,,,0.00,,2013-08-02 07:57:00,
2013-08-02 04:02:00,82.8,87.1,29.93,WNW,292,0.0,0.4,68,0.00,,,0.00,,2013-08-02 08:02:00,
2013-08-02 04:07:00,82.8,87.1,29.94,WNW,292,0.0,0.0,68,0.00,,,0.00,,2013-08-02 08:07:00,
2013-08-02 04:13:00,82.8,87.2,29.93,WNW,292,0.0,0.0,68,0.00,,,0.00,,2013-08-02 08:13:00,
2013-08-02 04:18:00,82.8,87.1,29.93,WNW,292,0.0,0.0,68,0.00,,,0.00,,2013-08-02 08:18:00,
2013-08-02 04:23:00,82.8,87.2,29.93,WNW,292,0.0,0.0,68,0.00,,,0.00,,2013-08-02 08:23:00,
2013-08-02 04:28:00,82.8,87.1,29.93,WNW,292,0.0,0.0,68,0.00,,,0.00,,2013-08-02 08:28:00,
2013-08-02 04:33:00,82.8,87.1,29.94,SSW,202,0.0,0.0,69,0.00,,,0.00,,2013-08-02 08:33:00,
2013-08-02 04:38:00,82.7,87.1,29.94,SSE,157,4.9,4.9,70,0.00,,,0.00,,2013-08-02 08:38:00,
2013-08-02 04:43:00,82.3,87.2,29.94,SSE,157,0.0,0.0,70,0.00,,,0.00,,2013-08-02 08:43:00,
2013-08-02 04:48:00,82.3,87.1,29.94,ENE,67,0.0,8.3,71,0.00,,,0.00,,2013-08-02 08:48:00,
2013-08-02 04:53:00,82.1,87.2,29.94,West,270,0.9,2.9,71,0.00,,,0.00,,2013-08-02 08:53:00,
2013-08-02 04:58:00,81.9,87.1,29.94,West,270,0.0,0.0,71,0.00,,,0.00,,2013-08-02 08:58:00,
2013-08-02 05:03:00,81.8,87.0,29.94,West,270,0.0,0.0,71,0.00,,,0.00,,2013-08-02 09:03:00,
2013-08-02 05:08:00,81.7,87.0,29.94,WNW,292,0.0,0.0,72,0.00,,,0.00,,2013-08-02 09:08:00,
2013-08-02 05:13:00,81.8,87.0,29.94,West,270,0.0,0.0,72,0.00,,,0.00,,2013-08-02 09:13:00,
2013-08-02 05:18:00,81.6,87.0,29.94,West,270,0.0,0.0,73,0.00,,,0.00,,2013-08-02 09:18:00,
2013-08-02 05:23:00,81.5,87.0,29.94,West,270,0.0,0.0,73,0.00,,,0.00,,2013-08-02 09:23:00,
2013-08-02 05:28:00,81.4,87.0,29.94,West,270,0.0,2.0,73,0.00,,,0.00,,2013-08-02 09:28:00,
2013-08-02 05:33:00,81.4,87.0,29.94,West,270,0.0,0.0,73,0.00,,,0.00,,2013-08-02 09:33:00,
2013-08-02 05:38:00,81.4,87.0,29.95,WNW,292,1.6,2.2,74,0.00,,,0.00,,2013-08-02 09:38:00,
2013-08-02 05:43:00,81.4,87.0,29.95,WNW,292,0.0,0.0,74,0.00,,,0.00,,2013-08-02 09:43:00,
2013-08-02 05:48:00,81.5,87.0,29.95,WNW,292,0.0,0.0,74,0.00,,,0.00,,2013-08-02 09:48:00,
2013-08-02 05:53:00,81.4,87.0,29.95,WNW,292,3.1,4.5,75,0.00,,,0.00,,2013-08-02 09:53:00,
2013-08-02 05:58:00,81.3,87.0,29.95,WNW,292,4.3,4.3,76,0.00,,,0.00,,2013-08-02 09:58:00,
2013-08-02 06:03:00,81.3,87.0,29.95,WNW,292,3.4,5.1,76,0.00,,,0.00,,2013-08-02 10:03:00,
2013-08-02 06:08:00,81.3,86.9,29.95,NNW,337,2.9,4.0,76,0.00,,,0.00,,2013-08-02 10:08:00,
2013-08-02 06:13:00,81.3,86.9,29.95,NW,315,0.4,2.0,75,0.00,,,0.00,,2013-08-02 10:13:00,
2013-08-02 06:18:00,81.3,87.0,29.96,NW,315,0.0,0.0,75,0.00,,,0.00,,2013-08-02 10:18:00,
2013-08-02 06:23:00,81.3,86.9,29.96,NNW,337,2.7,2.7,76,0.00,,,0.00,,2013-08-02 10:23:00,
2013-08-02 06:28:00,81.3,87.0,29.96,NW,315,2.9,4.5,75,0.00,,,0.00,,2013-08-02 10:28:00,
2013-08-02 06:33:00,81.2,86.9,29.96,NW,315,3.6,3.6,75,0.00,,,0.00,,2013-08-02 10:33:00,
2013-08-02 06:38:00,81.2,87.0,29.96,NW,315,3.8,4.0,75,0.00,,,0.00,,2013-08-02 10:38:00,
2013-08-02 06:43:00,81.2,86.9,29.96,NW,315,2.7,2.9,75,0.00,,,0.00,,2013-08-02 10:43:00,
2013-08-02 06:48:00,81.1,86.9,29.96,NNW,337,0.9,2.2,75,0.00,,,0.00,,2013-08-02 10:48:00,
2013-08-02 06:53:00,81.1,86.9,29.96,NNW,337,1.6,1.8,75,0.00,,,0.00,,2013-08-02 10:53:00,
2013-08-02 06:58:00,81.1,86.9,29.96,NW,315,2.5,2.9,76,0.00,,,0.00,,2013-08-02 10:58:00,
2013-08-02 07:03:00,81.1,86.9,29.95,NW,315,1.8,3.1,76,0.00,,,0.00,,2013-08-02 11:03:00,
2013-08-02 07:08:00,81.0,86.8,29.95,NNW,337,3.8,3.8,76,0.00,,,0.00,,2013-08-02 11:08:00,
2013-08-02 07:13:00,81.0,86.9,29.95,NNW,337,4.5,4.5,76,0.00,,,0.00,,2013-08-02 11:13:00,
2013-08-02 07:18:00,80.9,86.8,29.96,NNW,337,3.1,3.6,76,0.00,,,0.00,,2013-08-02 11:18:00,
2013-08-02 07:23:00,80.9,86.9,29.96,WNW,292,3.1,3.6,76,0.00,,,0.00,,2013-08-02 11:23:00,
2013-08-02 07:28:00,81.0,86.9,29.96,NW,315,2.0,3.4,76,0.00,,,0.00,,2013-08-02 11:28:00,
2013-08-02 07:33:00,81.0,86.8,29.96,NW,315,1.8,4.3,76,0.00,,,0.00,,2013-08-02 11:33:00,
2013-08-02 07:38:00,81.0,86.9,29.96,NW,315,3.1,4.0,77,0.00,,,0.00,,2013-08-02 11:38:00,
2013-08-02 07:43:00,81.1,86.9,29.96,NW,315,3.4,4.3,77,0.00,,,0.00,,2013-08-02 11:43:00,
2013-08-02 07:48:00,81.2,86.9,29.96,NNW,337,2.5,3.4,77,0.00,,,0.00,,2013-08-02 11:48:00,
2013-08-02 07:53:00,81.2,86.8,29.97,WNW,292,2.7,3.8,77,0.00,,,0.00,,2013-08-02 11:53:00,
2013-08-02 07:58:00,81.3,86.9,29.96,NW,315,2.7,3.4,77,0.00,,,0.00,,2013-08-02 11:58:00,
2013-08-02 08:03:00,81.8,86.9,29.96,WNW,292,3.8,4.7,78,0.00,,,0.00,,2013-08-02 12:03:00,
2013-08-02 08:08:00,82.6,87.0,29.96,WNW,292,2.9,3.4,78,0.00,,,0.00,,2013-08-02 12:08:00,
2013-08-02 08:13:00,83.4,87.0,29.96,NW,315,2.9,3.1,78,0.00,,,0.00,,2013-08-02 12:13:00,
2013-08-02 08:18:00,84.0,87.0,29.97,WNW,292,0.0,1.8,77,0.00,,,0.00,,2013-08-02 12:18:00,
2013-08-02 08:23:00,84.6,87.0,29.97,WNW,292,2.2,3.1,76,0.00,,,0.00,,2013-08-02 12:23:00,
2013-08-02 08:28:00,84.9,87.1,29.97,WNW,292,2.0,3.1,75,0.00,,,0.00,,2013-08-02 12:28:00,
2013-08-02 08:33:00,85.2,87.1,29.97,NW,315,2.5,3.4,74,0.00,,,0.00,,2013-08-02 12:33:00,
2013-08-02 08:38:00,85.4,87.2,29.97,NNW,337,4.7,6.7,73,0.00,,,0.00,,2013-08-02 12:38:00,
2013-08-02 08:43:00,85.6,87.2,29.97,NW,315,6.5,6.7,71,0.00,,,0.00,,2013-08-02 12:43:00,
2013-08-02 08:48:00,85.7,87.3,29.97,NNW,337,2.9,3.8,70,0.00,,,0.00,,2013-08-02 12:48:00,
2013-08-02 08:53:00,85.8,87.3,29.97,WNW,292,6.3,7.6,68,0.00,,,0.00,,2013-08-02 12:53:00,
2013-08-02 08:58:00,86.0,87.4,29.97,NW,315,4.9,5.8,67,0.00,,,0.00,,2013-08-02 12:58:00,
2013-08-02 09:03:00,86.1,87.4,29.98,WNW,292,1.8,4.0,67,0.00,,,0.00,,2013-08-02 13:03:00,
2013-08-02 09:08:00,86.3,87.4,29.98,WNW,292,2.9,2.9,66,0.00,,,0.00,,2013-08-02 13:08:00,
2013-08-02 09:13:00,86.3,87.5,29.97,NW,315,7.6,7.8,64,0.00,,,0.00,,2013-08-02 13:13:00,
2013-08-02 09:18:00,86.3,87.4,29.98,NNW,337,3.8,6.9,64,0.00,,,0.00,,2013-08-02 13:18:00,
2013-08-02 09:23:00,86.1,87.4,29.98,NNW,337,6.0,6.0,64,0.00,,,0.00,,2013-08-02 13:23:00,
2013-08-02 09:28:00,85.8,87.4,29.98,NNW,337,5.8,7.4,64,0.00,,,0.00,,2013-08-02 13:28:00,
2013-08-02 09:33:00,85.8,87.4,29.98,NW,315,3.8,4.5,65,0.00,,,0.00,,2013-08-02 13:33:00,
2013-08-02 09:38:00,86.1,87.5,29.99,NNW,337,3.1,5.6,65,0.00,,,0.00,,2013-08-02 13:38:00,
2013-08-02 09:43:00,86.6,87.5,29.99,NW,315,0.0,3.4,65,0.00,,,0.00,,2013-08-02 13:43:00,
2013-08-02 09:48:00,86.9,87.3,29.99,NW,315,0.0,3.4,65,0.00,,,0.00,,2013-08-02 13:48:00,
2013-08-02 09:53:00,87.1,87.3,29.99,West,270,3.6,3.6,62,0.00,,,0.00,,2013-08-02 13:53:00,
2013-08-02 09:58:00,87.0,87.2,30.00,West,270,1.3,5.1,62,0.00,,,0.00,,2013-08-02 13:58:00,
2013-08-02 10:03:00,87.1,87.4,30.00,NNW,337,4.7,5.6,62,0.00,,,0.00,,2013-08-02 14:03:00,
2013-08-02 10:08:00,87.4,87.4,30.00,NNE,22,4.3,4.5,62,0.00,,,0.00,,2013-08-02 14:08:00,
2013-08-02 10:13:00,88.0,87.3,30.00,North,0,3.6,5.4,62,0.00,,,0.00,,2013-08-02 14:13:00,
2013-08-02 10:19:00,88.4,87.4,30.00,North,0,4.3,6.3,61,0.00,,,0.00,,2013-08-02 14:19:00,
2013-08-02 10:24:00,88.4,87.5,30.00,NW,315,6.3,9.8,59,0.00,,,0.00,,2013-08-02 14:24:00,
2013-08-02 10:28:00,88.3,87.4,30.00,WNW,292,3.4,4.5,58,0.00,,,0.00,,2013-08-02 14:28:00,
2013-08-02 10:33:00,88.6,87.4,30.00,NNW,337,2.9,3.1,58,0.00,,,0.00,,2013-08-02 14:33:00,
2013-08-02 10:39:00,89.0,87.4,30.01,NW,315,2.7,2.7,58,0.00,,,0.00,,2013-08-02 14:39:00,
2013-08-02 10:44:00,89.4,87.7,30.00,NW,315,0.2,4.9,57,0.00,,,0.00,,2013-08-02 14:44:00,
2013-08-02 10:49:00,89.8,87.7,30.01,North,0,2.5,4.0,56,0.00,,,0.00,,2013-08-02 14:49:00,
2013-08-02 10:54:00,89.8,87.6,30.01,WNW,292,4.7,5.6,55,0.00,,,0.00,,2013-08-02 14:54:00,
2013-08-02 10:59:00,89.8,87.9,30.01,WNW,292,5.5,7.6,53,0.00,,,0.00,,2013-08-02 14:59:00,
2013-08-02 11:04:00,89.7,88.0,30.01,WSW,247,0.6,1.3,54,0.00,,,0.00,,2013-08-02 15:04:00,
2013-08-02 11:09:00,90.1,88.0,30.01,NNW,337,1.9,4.7,54,0.00,,,0.00,,2013-08-02 15:09:00,
2013-08-02 11:14:00,90.0,87.8,30.01,WNW,292,5.0,6.7,53,0.00,,,0.00,,2013-08-02 15:14:00,
2013-08-02 11:19:00,89.6,87.9,30.01,WNW,292,3.7,6.9,53,0.00,,,0.00,,2013-08-02 15:19:00,
2013-08-02 11:24:00,89.7,88.0,30.01,NNW,337,3.3,3.3,54,0.00,,,0.00,,2013-08-02 15:24:00,
2013-08-02 11:29:00,90.0,88.0,30.01,WNW,292,6.0,9.2,53,0.00,,,0.00,,2013-08-02 15:29:00,
2013-08-02 11:34:00,90.2,88.1,30.01,NNW,337,4.0,4.7,53,0.00,,,0.00,,2013-08-02 15:34:00,
2013-08-02 11:39:00,90.5,88.2,30.01,WNW,292,8.2,12.1,53,0.00,,,0.00,,2013-08-02 15:39:00,
2013-08-02 11:44:00,90.3,88.0,30.02,WNW,292,5.6,9.2,53,0.00,,,0.00,,2013-08-02 15:44:00,
2013-08-02 11:49:00,90.1,88.0,30.01,WSW,247,4.4,11.0,51,0.00,,,0.00,,2013-08-02 15:49:00,
2013-08-02 11:54:00,89.8,88.1,30.01,West,270,3.6,6.5,51,0.00,,,0.00,,2013-08-02 15:54:00,
2013-08-02 11:59:00,89.6,88.2,30.02,West,270,1.5,4.0,52,0.00,,,0.00,,2013-08-02 15:59:00,
2013-08-02 12:04:00,89.4,88.2,30.02,West,270,2.2,6.0,53,0.00,,,0.00,,2013-08-02 16:04:00,
2013-08-02 12:09:00,89.4,87.9,30.02,West,270,6.3,9.4,53,0.00,,,0.00,,2013-08-02 16:09:00,
2013-08-02 12:14:00,89.4,87.8,30.02,West,270,5.4,8.5,53,0.00,,,0.00,,2013-08-02 16:14:00,
2013-08-02 12:19:00,89.6,87.8,30.02,West,270,2.1,3.6,52,0.00,,,0.00,,2013-08-02 16:19:00,
2013-08-02 12:24:00,89.8,87.7,30.02,NW,315,1.7,4.9,52,0.00,,,0.00,,2013-08-02 16:24:00,
2013-08-02 12:29:00,90.1,87.8,30.01,NNW,337,1.3,3.6,51,0.00,,,0.00,,2013-08-02 16:29:00,
2013-08-02 12:34:00,90.6,87.9,30.01,North,0,3.8,7.6,51,0.00,,,0.00,,2013-08-02 16:34:00,
2013-08-02 12:39:00,90.8,88.0,30.01,NW,315,3.7,5.6,51,0.00,,,0.00,,2013-08-02 16:39:00,
2013-08-02 12:44:00,90.6,88.0,30.01,West,270,6.2,11.0,51,0.00,,,0.00,,2013-08-02 16:44:00,
2013-08-02 12:49:00,90.1,87.9,30.01,West,270,3.8,4.9,52,0.00,,,0.00,,2013-08-02 16:49:00,
2013-08-02 12:54:00,89.7,87.9,30.01,WNW,292,7.0,10.7,52,0.00,,,0.00,,2013-08-02 16:54:00,
2013-08-02 12:59:00,89.5,87.8,30.01,WNW,292,2.6,4.3,53,0.00,,,0.00,,2013-08-02 16:59:00,
2013-08-02 13:04:00,89.3,87.7,30.01,West,270,5.1,8.5,53,0.00,,,0.00,,2013-08-02 17:04:00,
2013-08-02 13:09:00,89.1,87.7,30.02,West,270,0.1,0.0,53,0.00,,,0.00,,2013-08-02 17:09:00,
2013-08-02 13:14:00,89.3,87.8,30.01,WNW,292,7.2,8.9,53,0.00,,,0.00,,2013-08-02 17:14:00,
2013-08-02 13:19:00,89.4,87.8,30.01,NNW,337,5.0,6.5,53,0.00,,,0.00,,2013-08-02 17:19:00,
2013-08-02 13:24:00,89.4,87.8,30.01,WNW,292,2.2,4.0,54,0.00,,,0.00,,2013-08-02 17:24:00,
2013-08-02 13:29:00,89.4,87.7,30.01,West,270,3.7,6.0,53,0.00,,,0.00,,2013-08-02 17:29:00,
2013-08-02 13:34:00,89.5,87.6,30.01,WNW,292,2.1,5.1,53,0.00,,,0.00,,2013-08-02 17:34:00,
2013-08-02 13:39:00,89.8,87.6,30.02,NW,315,1.1,1.3,53,0.00,,,0.00,,2013-08-02 17:39:00,
2013-08-02 13:44:00,89.6,87.6,30.01,West,270,3.5,6.7,54,0.00,,,0.00,,2013-08-02 17:44:00,
2013-08-02 13:49:00,89.4,87.6,30.01,West,270,1.6,2.0,54,0.00,,,0.00,,2013-08-02 17:49:00,
2013-08-02 13:54:00,89.4,87.7,30.01,West,270,1.8,3.1,54,0.00,,,0.00,,2013-08-02 17:54:00,
2013-08-02 13:59:00,89.2,87.7,30.01,SW,225,6.0,6.0,55,0.00,,,0.00,,2013-08-02 17:59:00,
2013-08-02 14:04:00,88.8,87.7,30.01,South,180,0.6,1.1,55,0.00,,,0.00,,2013-08-02 18:04:00,
2013-08-02 14:09:00,88.9,87.7,30.01,ENE,67,1.6,7.2,56,0.00,,,0.00,,2013-08-02 18:09:00,
2013-08-02 14:14:00,88.7,87.8,30.01,ENE,67,5.6,8.5,58,0.00,,,0.00,,2013-08-02 18:14:00,
2013-08-02 14:19:00,88.4,87.7,30.01,ENE,67,3.2,6.5,59,0.00,,,0.00,,2013-08-02 18:19:00,
2013-08-02 14:24:00,87.9,87.7,30.00,SSE,157,3.0,7.6,61,0.00,,,0.00,,2013-08-02 18:24:00,
2013-08-02 14:29:00,87.5,87.9,30.00,ESE,112,8.2,16.3,62,0.00,,,0.00,,2013-08-02 18:29:00,
2013-08-02 14:34:00,87.0,87.9,30.00,ESE,112,8.7,13.2,64,0.00,,,0.00,,2013-08-02 18:34:00,
2013-08-02 14:39:00,86.7,88.0,30.00,East,90,8.2,11.2,67,0.00,,,0.00,,2013-08-02 18:39:00,
2013-08-02 14:44:00,86.6,88.1,30.00,East,90,6.5,8.9,67,0.00,,,0.00,,2013-08-02 18:44:00,
2013-08-02 14:49:00,86.8,87.7,30.00,East,90,4.5,7.6,67,0.00,,,0.00,,2013-08-02 18:49:00,
2013-08-02 14:54:00,87.1,88.1,30.01,East,90,3.8,5.4,66,0.00,,,0.00,,2013-08-02 18:54:00,
2013-08-02 14:59:00,87.1,88.1,30.00,ESE,112,6.9,10.5,66,0.00,,,0.00,,2013-08-02 18:59:00,
2013-08-02 15:04:00,87.1,88.1,30.00,East,90,7.0,9.4,65,0.00,,,0.00,,2013-08-02 19:04:00,
2013-08-02 15:09:00,87.0,88.1,30.00,ESE,112,5.0,7.2,65,0.00,,,0.00,,2013-08-02 19:09:00,
2013-08-02 15:14:00,87.1,88.2,30.00,East,90,5.9,7.6,65,0.00,,,0.00,,2013-08-02 19:14:00,
2013-08-02 15:19:00,87.3,88.1,30.00,ESE,112,5.1,8.3,65,0.00,,,0.00,,2013-08-02 19:19:00,
2013-08-02 15:24:00,87.4,88.1,30.00,ESE,112,3.6,4.7,64,0.00,,,0.00,,2013-08-02 19:24:00,
2013-08-02 15:29:00,87.4,87.9,30.00,East,90,6.8,8.5,63,0.00,,,0.00,,2013-08-02 19:29:00,
2013-08-02 15:34:00,87.3,88.0,30.00,East,90,4.6,8.1,64,0.00,,,0.00,,2013-08-02 19:34:00,
2013-08-02 15:39:00,87.0,87.9,30.00,East,90,9.9,13.2,64,0.00,,,0.00,,2013-08-02 19:39:00,
2013-08-02 15:44:00,86.9,88.0,30.00,ESE,112,4.8,8.7,65,0.00,,,0.00,,2013-08-02 19:44:00,
2013-08-02 15:49:00,86.8,88.0,30.00,ENE,67,4.5,10.1,64,0.00,,,0.00,,2013-08-02 19:49:00,
2013-08-02 15:54:00,86.7,87.9,30.00,East,90,4.3,6.0,64,0.00,,,0.00,,2013-08-02 19:54:00,
2013-08-02 15:59:00,86.6,88.0,30.00,NE,45,3.7,8.3,64,0.00,,,0.00,,2013-08-02 19:59:00,
2013-08-02 16:04:00,86.1,88.0,30.01,NNE,22,16.8,16.8,62,0.00,,,0.00,,2013-08-02 20:04:00,
2013-08-02 16:09:00,84.9,88.0,30.01,NNE,22,11.3,14.8,62,0.00,,,0.00,,2013-08-02 20:09:00,
2013-08-02 16:14:00,84.1,87.9,30.01,East,90,6.0,6.0,62,0.00,,,0.00,,2013-08-02 20:14:00,
2013-08-02 16:19:00,83.6,88.0,30.01,NNE,22,8.4,11.2,63,0.00,,,0.00,,2013-08-02 20:19:00,
2013-08-02 16:24:00,83.1,87.9,30.00,ESE,112,4.1,4.5,62,0.00,,,0.00,,2013-08-02 20:24:00,
2013-08-02 16:29:00,82.5,87.9,30.00,East,90,6.3,7.6,63,0.00,,,0.00,,2013-08-02 20:29:00,
2013-08-02 16:34:00,82.2,87.8,30.00,ESE,112,1.7,3.4,63,0.00,,,0.00,,2013-08-02 20:34:00,
2013-08-02 16:39:00,82.1,87.8,30.00,ESE,112,2.6,4.3,64,0.00,,,0.00,,2013-08-02 20:39:00,
2013-08-02 16:44:00,82.0,87.7,30.00,ENE,67,3.5,5.8,65,0.00,,,0.00,,2013-08-02 20:44:00,
2013-08-02 16:49:00,81.9,87.7,30.00,NE,45,1.0,2.9,66,0.00,,,0.00,,2013-08-02 20:49:00,
2013-08-02 16:54:00,81.9,87.7,30.00,East,90,1.1,2.7,67,0.00,,,0.00,,2013-08-02 20:54:00,
2013-08-02 16:59:00,81.7,87.7,30.00,SE,135,2.1,2.2,67,0.00,,,0.00,,2013-08-02 20:59:00,
2013-08-02 17:04:00,81.4,87.7,30.00,SSE,157,1.1,2.7,68,0.00,,,0.00,,2013-08-02 21:04:00,
2013-08-02 17:09:00,81.3,87.7,30.00,SE,135,0.4,0.9,68,0.00,,,0.00,,2013-08-02 21:09:00,
2013-08-02 17:14:00,81.3,87.6,30.00,SE,135,0.0,0.0,68,0.00,,,0.00,,2013-08-02 21:14:00,
2013-08-02 17:19:00,81.2,87.6,30.00,SSE,157,0.2,0.9,69,0.00,,,0.00,,2013-08-02 21:19:00,
2013-08-02 17:24:00,81.3,87.6,30.00,SSE,157,4.7,6.0,71,0.00,,,0.00,,2013-08-02 21:24:00,
2013-08-02 17:29:00,81.1,87.6,30.00,ESE,112,2.5,2.7,72,0.00,,,0.00,,2013-08-02 21:29:00,
2013-08-02 17:34:00,81.2,87.6,30.00,SE,135,0.9,2.2,73,0.00,,,0.00,,2013-08-02 21:34:00,
2013-08-02 17:39:00,81.2,87.6,30.00,SE,135,2.1,3.4,73,0.00,,,0.00,,2013-08-02 21:39:00,
2013-08-02 17:44:00,81.3,87.6,30.00,East,90,0.3,2.0,73,0.00,,,0.00,,2013-08-02 21:44:00,
2013-08-02 17:49:00,81.4,87.6,30.00,East,90,1.7,2.0,74,0.00,,,0.00,,2013-08-02 21:49:00,
2013-08-02 17:54:00,81.4,87.6,30.00,SSE,157,4.2,5.4,74,0.00,,,0.00,,2013-08-02 21:54:00,
2013-08-02 17:59:00,81.2,87.6,30.00,South,180,4.5,5.1,75,0.00,,,0.00,,2013-08-02 21:59:00,
2013-08-02 18:04:00,81.2,87.6,30.00,SE,135,4.7,5.6,76,0.00,,,0.00,,2013-08-02 22:04:00,
2013-08-02 18:09:00,81.0,87.6,30.00,SSE,157,4.5,4.9,76,0.00,,,0.00,,2013-08-02 22:09:00,
2013-08-02 18:14:00,80.9,87.6,30.00,SE,135,4.8,7.2,76,0.00,,,0.00,,2013-08-02 22:14:00,
2013-08-02 18:19:00,80.9,87.5,30.01,SSE,157,4.4,5.4,76,0.00,,,0.00,,2013-08-02 22:19:00,
2013-08-02 18:24:00,80.8,87.5,30.01,SSE,157,4.4,5.6,77,0.00,,,0.00,,2013-08-02 22:24:00,
2013-08-02 18:29:00,80.7,87.6,30.01,SSE,157,3.2,3.2,76,0.00,,,0.00,,2013-08-02 22:29:00,
2013-08-02 18:34:00,80.8,87.5,30.00,SSE,157,4.6,5.4,77,0.00,,,0.00,,2013-08-02 22:34:00,
2013-08-02 18:39:00,80.7,87.5,30.00,SE,135,4.5,6.0,76,0.00,,,0.00,,2013-08-02 22:39:00,
2013-08-02 18:44:00,80.8,87.5,30.00,SE,135,5.5,6.9,77,0.00,,,0.00,,2013-08-02 22:44:00,
2013-08-02 18:49:00,80.7,87.5,30.00,SSE,157,6.1,6.7,77,0.00,,,0.00,,2013-08-02 22:49:00,
2013-08-02 18:54:00,80.7,87.5,30.01,SSE,157,5.5,6.9,77,0.00,,,0.00,,2013-08-02 22:54:00,
2013-08-02 18:59:00,80.6,87.5,30.01,SSE,157,4.1,5.4,77,0.00,,,0.00,,2013-08-02 22:59:00,
2013-08-02 19:04:00,80.8,87.4,30.01,SSE,157,5.0,7.4,77,0.00,,,0.00,,2013-08-02 23:04:00,
2013-08-02 19:09:00,80.8,87.4,30.02,South,180,6.7,7.4,77,0.00,,,0.00,,2013-08-02 23:09:00,
2013-08-02 19:14:00,80.7,87.4,30.02,South,180,6.6,8.1,77,0.00,,,0.00,,2013-08-02 23:14:00,
2013-08-02 19:19:00,80.7,87.5,30.02,South,180,6.8,9.6,77,0.00,,,0.00,,2013-08-02 23:19:00,
2013-08-02 19:24:00,80.7,87.4,30.02,SSE,157,4.2,5.6,77,0.00,,,0.00,,2013-08-02 23:24:00,
2013-08-02 19:29:00,80.8,87.4,30.02,SSE,157,4.4,7.8,77,0.00,,,0.00,,2013-08-02 23:29:00,
2013-08-02 19:34:00,80.8,87.5,30.02,SSE,157,4.3,6.0,77,0.00,,,0.00,,2013-08-02 23:34:00,
2013-08-02 19:39:00,80.8,87.4,30.02,SSE,157,4.5,7.2,77,0.00,,,0.00,,2013-08-02 23:39:00,
2013-08-02 19:44:00,80.9,87.3,30.02,SSE,157,5.0,7.4,77,0.00,,,0.00,,2013-08-02 23:44:00,
2013-08-02 19:49:00,80.9,87.3,30.03,South,180,5.1,8.1,78,0.00,,,0.00,,2013-08-02 23:49:00,
2013-08-02 19:54:00,80.9,87.3,30.03,South,180,5.5,6.9,78,0.00,,,0.00,,2013-08-02 23:54:00,
2013-08-02 19:59:00,80.9,87.2,30.04,SSW,202,6.0,7.8,78,0.00,,,0.00,,2013-08-02 23:59:00,
2013-08-02 20:04:00,81.0,87.2,30.04,SSW,202,4.5,5.1,78,0.00,,,0.00,,2013-08-03 00:04:00,
2013-08-02 20:09:00,80.9,87.2,30.04,SSW,202,4.4,9.4,79,0.00,,,0.00,,2013-08-03 00:09:00,
2013-08-02 20:14:00,80.9,87.2,30.04,SSE,157,5.1,5.6,79,0.00,,,0.00,,2013-08-03 00:14:00,
2013-08-02 20:20:00,81.0,87.1,30.04,South,180,7.5,8.7,79,0.00,,,0.00,,2013-08-03 00:20:00,
2013-08-02 20:25:00,80.9,87.2,30.04,South,180,4.6,5.8,78,0.00,,,0.00,,2013-08-03 00:25:00,
2013-08-02 20:30:00,81.0,87.1,30.04,SSW,202,7.4,8.9,79,0.00,,,0.00,,2013-08-03 00:30:00,
2013-08-02 20:35:00,81.0,87.1,30.04,South,180,8.4,9.4,79,0.00,,,0.00,,2013-08-03 00:35:00,
2013-08-02 20:40:00,81.1,87.2,30.04,SSW,202,7.0,8.9,78,0.00,,,0.00,,2013-08-03 00:40:00,
2013-08-02 20:45:00,81.0,87.2,30.04,SSW,202,7.0,8.3,79,0.00,,,0.00,,2013-08-03 00:45:00,
2013-08-02 20:50:00,80.9,87.2,30.04,WSW,247,4.9,7.2,79,0.00,,,0.00,,2013-08-03 00:50:00,
2013-08-02 20:54:00,80.9,87.1,30.04,SSW,202,4.7,5.4,78,0.00,,,0.00,,2013-08-03 00:54:00,
2013-08-02 21:00:00,80.9,87.1,30.04,SW,225,7.8,9.4,75,0.00,,,0.00,,2013-08-03 01:00:00,
2013-08-02 21:05:00,80.9,87.0,30.04,SW,225,6.4,6.4,74,0.00,,,0.00,,2013-08-03 01:05:00,
2013-08-02 21:10:00,80.7,87.0,30.04,SW,225,5.8,7.8,73,0.00,,,0.00,,2013-08-03 01:10:00,
2013-08-02 21:15:00,80.7,87.0,30.04,SW,225,7.4,8.5,70,0.00,,,0.00,,2013-08-03 01:15:00,
2013-08-02 21:20:00,80.6,87.0,30.04,SW,225,7.2,8.9,69,0.00,,,0.00,,2013-08-03 01:20:00,
2013-08-02 21:25:00,80.5,87.1,30.04,WSW,247,6.6,8.3,69,0.00,,,0.00,,2013-08-03 01:25:00,
2013-08-02 21:30:00,80.3,87.1,30.05,SW,225,5.9,6.5,70,0.00,,,0.00,,2013-08-03 01:30:00,
2013-08-02 21:35:00,80.1,87.0,30.05,SSW,202,3.5,6.0,71,0.00,,,0.00,,2013-08-03 01:35:00,
2013-08-02 21:40:00,80.0,87.0,30.05,SSW,202,2.8,3.8,71,0.00,,,0.00,,2013-08-03 01:40:00,
2013-08-02 21:45:00,80.2,87.0,30.05,SSW,202,3.9,5.8,71,0.00,,,0.00,,2013-08-03 01:45:00,
2013-08-02 21:50:00,80.1,86.9,30.05,South,180,3.5,4.3,71,0.00,,,0.00,,2013-08-03 01:50:00,
2013-08-02 21:55:00,80.1,87.0,30.05,South,180,2.0,3.4,72,0.00,,,0.00,,2013-08-03 01:55:00,
2013-08-02 22:00:00,80.1,87.0,30.05,South,180,2.7,3.4,72,0.00,,,0.00,,2013-08-03 02:00:00,
2013-08-02 22:05:00,80.0,87.0,30.06,SSW,202,1.5,4.5,72,0.00,,,0.00,,2013-08-03 02:05:00,
2013-08-02 22:10:00,80.0,86.9,30.06,South,180,2.6,4.5,73,0.00,,,0.00,,2013-08-03 02:10:00,
2013-08-02 22:15:00,79.9,86.9,30.05,South,180,2.6,3.6,73,0.00,,,0.00,,2013-08-03 02:15:00,
2013-08-02 22:20:00,79.8,86.8,30.05,SSW,202,4.1,4.7,73,0.00,,,0.00,,2013-08-03 02:20:00,
2013-08-02 22:25:00,79.8,86.8,30.05,SSW,202,3.4,4.3,74,0.00,,,0.00,,2013-08-03 02:25:00,
2013-08-02 22:30:00,79.8,86.9,30.05,SSW,202,2.7,3.8,74,0.00,,,0.00,,2013-08-03 02:30:00,
2013-08-02 22:35:00,79.8,86.7,30.05,South,180,5.3,7.4,75,0.00,,,0.00,,2013-08-03 02:35:00,
2013-08-02 22:40:00,79.8,86.8,30.05,SSE,157,5.4,7.8,76,0.00,,,0.00,,2013-08-03 02:40:00,
2013-08-02 22:45:00,79.8,86.8,30.05,SSE,157,5.0,7.4,77,0.00,,,0.00,,2013-08-03 02:45:00,
2013-08-02 22:50:00,79.8,86.9,30.05,SSE,157,5.4,6.5,78,0.00,,,0.00,,2013-08-03 02:50:00,
2013-08-02 22:55:00,79.7,86.8,30.06,South,180,6.0,7.2,78,0.00,,,0.00,,2013-08-03 02:55:00,
2013-08-02 23:00:00,79.8,86.8,30.06,South,180,2.1,3.6,77,0.00,,,0.00,,2013-08-03 03:00:00,
2013-08-02 23:05:00,79.9,86.8,30.06,South,180,5.1,6.5,78,0.00,,,0.00,,2013-08-03 03:05:00,
2013-08-02 23:10:00,80.0,86.8,30.06,SSE,157,6.2,8.3,77,0.00,,,0.00,,2013-08-03 03:10:00,
2013-08-02 23:15:00,80.0,86.8,30.06,SSE,157,5.8,7.2,78,0.00,,,0.00,,2013-08-03 03:15:00,
2013-08-02 23:20:00,79.9,86.8,30.06,South,180,5.2,5.8,77,0.00,,,0.00,,2013-08-03 03:20:00,
2013-08-02 23:25:00,80.0,86.8,30.06,South,180,5.2,6.7,77,0.00,,,0.00,,2013-08-03 03:25:00,
2013-08-02 23:30:00,80.0,86.7,30.06,South,180,6.6,8.3,77,0.00,,,0.00,,2013-08-03 03:30:00,
2013-08-02 23:35:00,80.0,86.7,30.06,South,180,6.7,9.2,77,0.00,,,0.00,,2013-08-03 03:35:00,
2013-08-02 23:40:00,80.0,86.6,30.06,South,180,5.6,6.5,77,0.00,,,0.00,,2013-08-03 03:40:00,
2013-08-02 23:45:00,80.0,86.7,30.06,South,180,7.7,10.5,77,0.00,,,0.00,,2013-08-03 03:45:00,
2013-08-02 23:50:00,80.1,86.7,30.05,SSE,157,6.3,6.5,77,0.00,,,0.00,,2013-08-03 03:50:00,
2013-08-02 23:55:00,80.1,86.8,30.05,SE,135,5.3,6.5,77,0.00,,,0.00,,2013-08-03 03:55:00,